• Join FlightAware (Why Join?)
  • Login
  • US Flag 
12:25AM EDT


 

Airport Tracker/Info


-or-


 

Live Flight TrackerFlight Track Log ✈ N830QS ✈ 24-Jun-2013 ✈ KAPA - KSLC

Flight Track Log - Related Links

Times and Time Zones

All times are in EDT time to prevent confusion due to time zone crossing. See the N830QS flight status page for this flight to view local times or setup timezone preferences in your user account.

Time Position Orientation Groundspeed Altitude Reporting Facility
EDT Latitude Longitude Course Direction KTS MPH feet Rate Location/Type
11:02AM 39.5333 -104.8833 285° West 207 238 8,500  Level Denver TRACON
11:03AM 39.5667 -104.9667 297° West 254 292 11,000 2,340 Climbing Denver TRACON
11:04AM 39.5822 -105.0067 297° West 269 310 12,100 2,640 Climbing Denver Center
11:05AM 39.6172 -105.1089 294° West 305 351 15,100 1,800 Climbing Denver Center
11:06AM 39.6797 -105.1947 313° West 325 374 15,900 1,320 Climbing Denver Center
11:07AM 39.7728 -105.2206 348° North 344 396 17,900 2,220 Climbing Denver Center
11:08AM 39.7074 -105.5298 285° West  Level Estimated
11:08AM 39.8725 -105.2089 North 357 411 20,600  Level Denver Center
11:09AM 39.9728 -105.2117 359° North 366 421 23,100 2,280 Climbing Denver Center
11:10AM 40.0022 -105.3294 288° West 349 402 25,400 1,380 Climbing Denver Center
11:11AM 39.9914 -105.4583 264° West 371 427 26,000 540 Climbing Denver Center
11:12AM 39.9928 -105.6014 271° West 403 464 26,600 600 Climbing Denver Center
11:13AM 39.9942 -105.7458 271° West 396 456 27,300 660 Climbing Denver Center
11:14AM 39.9961 -105.8889 271° West 389 448 28,000 1,020 Climbing Denver Center
11:15AM 39.9997 -106.0658 272° West 405 466 29,500 2,460 Climbing Denver Center
11:16AM 39.9981 -106.1928 269° West 359 413 33,200 2,160 Climbing Denver Center
11:17AM 40.0031 -106.3136 273° West 337 388 34,000 360 Climbing Denver Center
11:18AM 40.0028 -106.4458 270° West 361 415 34,000  Level Denver Center
11:19AM 40.0103 -106.5911 274° West 379 436 34,000  Level Denver Center
11:20AM 40.0178 -106.7467 274° West 385 443 34,000  Level Denver Center
11:21AM 40.0244 -106.8794 274° West 384 442 34,000  Level Denver Center
11:22AM 40.0308 -107.0358 273° West 386 444 34,000  Level Denver Center
11:23AM 40.0372 -107.1714 274° West 392 451 34,000  Level Denver Center
11:24AM 40.0442 -107.3272 273° West 389 448 34,000  Level Denver Center
11:26AM 40.0494 -107.4603 273° West 385 443 34,000  Level Denver Center
11:27AM 40.0575 -107.6369 273° West 385 443 34,000  Level Denver Center
11:28AM 40.0614 -107.7703 272° West 384 442 34,000  Level Denver Center
11:29AM 40.0681 -107.9253 273° West 384 442 34,000  Level Denver Center
11:30AM 40.0739 -108.0578 273° West 384 442 34,000  Level Denver Center
11:31AM 40.0803 -108.2111 273° West 380 437 34,000  Level Denver Center
11:32AM 40.0869 -108.3453 274° West 384 442 34,000  Level Denver Center
11:32AM 40.0903 -108.4125 274° West 386 444 34,000  Level Salt Lake Center
11:33AM 40.0958 -108.5686 273° West 390 449 34,000  Level Salt Lake Center
11:34AM 40.0994 -108.6350 274° West 388 447 34,000  Level Denver Center
11:35AM 40.1050 -108.7922 273° West 390 449 34,000  Level Denver Center
11:36AM 40.1100 -108.9267 273° West 390 449 34,000  Level Denver Center
11:36AM 40.1136 -109.0161 273° West 389 448 34,000  Level Salt Lake Center
11:37AM 40.1178 -109.1506 272° West 389 448 34,000  Level Salt Lake Center
11:38AM 40.1203 -109.2186 273° West 392 451 34,000  Level Denver Center
11:39AM 40.1258 -109.3747 273° West 388 447 34,000  Level Denver Center
11:40AM 40.1283 -109.4425 273° West 389 448 34,000  Level Salt Lake Center
11:41AM 40.1322 -109.5783 272° West 392 451 34,000  Level Salt Lake Center
11:42AM 40.1375 -109.7350 273° West 388 447 34,000  Level Salt Lake Center
11:43AM 40.1417 -109.8694 272° West 389 448 34,000 -780 Level Salt Lake Center
11:44AM 40.1461 -110.0247 272° West 385 443 32,400 -1,500 Descending Salt Lake Center
11:45AM 40.1497 -110.1558 272° West 380 437 30,900 -1,200 Descending Salt Lake Center
11:46AM 40.1542 -110.3150 272° West 390 449 30,000 -480 Descending Salt Lake Center
11:47AM 40.1578 -110.4528 272° West 395 455 30,000  Level Salt Lake Center
11:48AM 40.1617 -110.6133 272° West 397 457 30,000  Level Salt Lake Center
11:49AM 40.1642 -110.7528 271° West 399 459 30,000  Level Salt Lake Center
11:50AM 40.1692 -110.9125 272° West 395 455 30,000 -780 Level Salt Lake Center
11:51AM 40.1717 -111.0389 272° West 395 455 28,500 -2,040 Descending Salt Lake Center
11:52AM 40.1747 -111.2111 271° West 394 453 25,900 -2,280 Descending Salt Lake Center
11:53AM 40.1761 -111.3553 271° West 396 456 23,800 -2,040 Descending Salt Lake Center
11:54AM 40.1783 -111.4950 271° West 385 443 21,800 -2,040 Descending Salt Lake Center
11:55AM 40.1781 -111.6353 270° West 376 433 19,800 -1,800 Descending Salt Lake Center
11:56AM 40.1986 -111.7489 283° West 377 434 18,600 -1,380 Descending Salt Lake Center
11:57AM 40.2436 -111.8658 297° West 361 415 17,400 -1,020 Descending Salt Lake Center
11:58AM 40.3028 -111.9694 307° West 378 435 16,600 -1,080 Descending Salt Lake Center
11:59AM 40.3914 -112.0353 331° Northwest 363 418 15,300 -1,500 Descending Salt Lake Center
12:00PM 40.4961 -112.0647 348° North 374 430 13,600 -1,860 Descending Salt Lake Center
12:01PM 40.5997 -112.0778 355° North 366 421 11,600 -1,320 Descending Salt Lake Center
12:02PM 40.6989 -112.0894 355° North 352 405 11,000 -360 Descending Salt Lake Center
12:03PM 40.7911 -112.0981 356° North 310 357 10,900 -540 Descending Salt Lake Center
12:04PM 40.8583 -112.0894 North 266 306 10,000 -1,260 Descending Salt Lake Center
12:04PM 40.8853 -112.0836 North 253 291 9,100 -1,920 Descending Salt Lake Center
12:05PM 40.9250 -112.0667 18° North 236 272 7,900 -720 Descending Salt Lake Center
12:06PM 40.9386 -111.9825 78° East 221 254 8,000 -720 Climbing Salt Lake Center
12:07PM 40.8961 -111.9631 161° South 156 180 6,400 -1,320 Descending Salt Lake Center
12:08PM 40.8597 -111.9642 181° South 142 163 5,400 -840 Descending Salt Lake Center
12:09PM 40.8447 -111.9628 176° South 135 155 5,200 -600 Descending Salt Lake Center
12:10PM 40.8131 -111.9628 180° South 117 135 4,500 -720 Descending Salt Lake Center
12:12PM 40.7833 -111.9667 North  Level FlightAware Approximate